createdAt,value
2018-01-19T00:00:38.461Z,2.70
2018-01-19T00:03:05.889Z,2.70
2018-01-19T00:05:33.448Z,2.70
2018-01-19T00:08:01.117Z,2.80
2018-01-19T00:10:28.668Z,2.70
2018-01-19T00:12:56.093Z,2.80
2018-01-19T00:15:23.580Z,2.80
2018-01-19T00:17:51.017Z,2.80
2018-01-19T00:20:18.502Z,2.80
2018-01-19T00:22:45.932Z,2.80
2018-01-19T00:25:14.343Z,2.80
2018-01-19T00:27:42.096Z,2.90
2018-01-19T00:30:09.733Z,2.90
2018-01-19T00:32:37.235Z,2.90
2018-01-19T00:35:04.652Z,2.90
2018-01-19T00:37:32.246Z,2.90
2018-01-19T00:39:59.696Z,2.90
2018-01-19T00:42:27.464Z,3.00
2018-01-19T00:44:54.890Z,3.00
2018-01-19T00:47:22.382Z,3.00
2018-01-19T00:49:50.008Z,3.00
2018-01-19T00:52:17.606Z,3.00
2018-01-19T00:54:45.025Z,2.90
2018-01-19T00:57:12.444Z,3.00
2018-01-19T00:59:39.878Z,3.00
2018-01-19T01:02:07.425Z,2.90
2018-01-19T01:04:34.926Z,3.10
2018-01-19T01:07:02.652Z,2.90
2018-01-19T01:09:30.126Z,3.00
2018-01-19T01:11:57.754Z,3.00
2018-01-19T01:14:25.232Z,2.90
2018-01-19T01:16:52.697Z,2.90
2018-01-19T01:19:20.260Z,2.90
2018-01-19T01:21:47.714Z,2.80
2018-01-19T01:24:15.169Z,2.90
2018-01-19T01:26:42.929Z,2.90
2018-01-19T01:29:10.389Z,2.80
2018-01-19T01:31:37.876Z,2.80
2018-01-19T01:34:05.612Z,2.80
2018-01-19T01:36:33.068Z,2.80
2018-01-19T01:39:00.700Z,2.80
2018-01-19T01:41:28.224Z,2.80
2018-01-19T01:43:55.646Z,2.90
2018-01-19T01:46:23.128Z,2.80
2018-01-19T01:49:02.489Z,2.70
2018-01-19T01:51:30.677Z,2.60
2018-01-19T01:53:58.105Z,2.50
2018-01-19T01:56:25.632Z,2.40
2018-01-19T01:58:53.104Z,2.20
2018-01-19T02:01:20.733Z,2.00
2018-01-19T02:03:48.219Z,1.80
2018-01-19T02:06:15.700Z,1.70
2018-01-19T02:08:43.121Z,1.70
2018-01-19T02:11:10.545Z,1.70
2018-01-19T02:13:38.149Z,1.80
2018-01-19T02:16:05.785Z,1.70
2018-01-19T02:18:33.249Z,1.50
2018-01-19T02:21:00.937Z,1.50
2018-01-19T02:23:28.614Z,1.50
2018-01-19T02:25:56.032Z,1.60
2018-01-19T02:28:23.454Z,1.60
2018-01-19T02:30:50.868Z,1.50
2018-01-19T02:33:18.330Z,1.50
2018-01-19T02:35:45.790Z,1.40
2018-01-19T02:38:13.347Z,1.40
2018-01-19T02:40:47.737Z,1.40
2018-01-19T02:43:15.225Z,1.40
2018-01-19T02:45:42.708Z,1.40
2018-01-19T02:48:10.140Z,1.40
2018-01-19T02:50:37.598Z,1.40
2018-01-19T02:53:05.090Z,1.40
2018-01-19T02:55:32.480Z,1.30
2018-01-19T02:57:59.972Z,1.20
2018-01-19T03:00:27.397Z,1.20
2018-01-19T03:02:54.990Z,1.30
2018-01-19T03:05:22.437Z,1.20
2018-01-19T03:07:49.905Z,1.10
2018-01-19T03:10:17.362Z,1.20
2018-01-19T03:12:44.790Z,1.20
2018-01-19T03:15:12.221Z,1.20
2018-01-19T03:17:39.736Z,1.20
2018-01-19T03:20:07.366Z,1.20
2018-01-19T03:22:34.796Z,1.20
2018-01-19T03:25:02.413Z,1.30
2018-01-19T03:27:30.044Z,1.30
2018-01-19T03:29:57.633Z,1.20
2018-01-19T03:32:25.398Z,1.40
2018-01-19T03:34:52.812Z,1.20
2018-01-19T03:37:20.324Z,1.20
2018-01-19T03:39:47.749Z,1.10
2018-01-19T03:42:15.169Z,1.10
2018-01-19T03:44:42.589Z,1.00
2018-01-19T03:47:10.053Z,1.00
2018-01-19T03:49:37.490Z,1.00
2018-01-19T03:52:05.060Z,1.00
2018-01-19T03:54:32.497Z,1.10
2018-01-19T03:56:59.917Z,1.10
2018-01-19T03:59:27.352Z,1.20
2018-01-19T04:01:54.902Z,1.20
2018-01-19T04:04:22.529Z,1.10
2018-01-19T04:06:50.116Z,1.20
2018-01-19T04:09:17.577Z,1.20
2018-01-19T04:11:45.006Z,1.20
2018-01-19T04:14:12.434Z,1.20
2018-01-19T04:16:39.856Z,1.20
2018-01-19T04:19:07.290Z,1.20
2018-01-19T04:21:34.874Z,1.40
2018-01-19T04:24:02.628Z,1.20
2018-01-19T04:26:30.061Z,1.20
2018-01-19T04:28:57.491Z,1.20
2018-01-19T04:31:24.937Z,1.20
2018-01-19T04:33:52.518Z,1.20
2018-01-19T04:36:20.141Z,1.20
2018-01-19T04:38:47.681Z,1.20
2018-01-19T04:41:15.130Z,1.20
2018-01-19T04:43:42.605Z,1.20
2018-01-19T04:46:10.380Z,1.20
2018-01-19T04:48:37.829Z,1.20
2018-01-19T04:51:05.477Z,1.20
2018-01-19T04:53:33.056Z,1.10
2018-01-19T04:56:00.495Z,1.20
2018-01-19T04:58:27.972Z,1.20
2018-01-19T05:00:55.728Z,1.20
2018-01-19T05:03:23.156Z,1.20
2018-01-19T05:05:50.645Z,1.20
2018-01-19T05:08:18.073Z,1.20
2018-01-19T05:10:45.516Z,1.20
2018-01-19T05:13:13.020Z,1.20
2018-01-19T05:15:40.665Z,1.20
2018-01-19T05:18:08.172Z,1.10
2018-01-19T05:20:35.701Z,1.10
2018-01-19T05:23:03.129Z,1.20
2018-01-19T05:25:30.602Z,1.20
2018-01-19T05:27:58.029Z,1.30
2018-01-19T05:30:25.530Z,1.30
2018-01-19T05:32:53.160Z,1.30
2018-01-19T05:35:20.753Z,1.30
2018-01-19T05:37:48.212Z,1.30
2018-01-19T05:40:15.864Z,1.30
2018-01-19T05:42:43.339Z,1.30
2018-01-19T05:45:10.793Z,1.20
2018-01-19T05:47:38.264Z,1.30
2018-01-19T05:50:05.813Z,1.40
2018-01-19T05:52:33.254Z,1.40
2018-01-19T05:55:00.638Z,1.50
2018-01-19T05:57:28.185Z,1.40
2018-01-19T05:59:55.613Z,1.50
2018-01-19T06:02:23.100Z,1.50
2018-01-19T06:04:50.860Z,1.40
2018-01-19T06:07:18.630Z,1.40
2018-01-19T06:09:46.261Z,1.50
2018-01-19T06:12:13.859Z,1.50
2018-01-19T06:14:41.485Z,1.50
2018-01-19T06:17:08.988Z,1.30
2018-01-19T06:19:36.413Z,1.30
2018-01-19T06:22:03.995Z,1.30
2018-01-19T06:24:31.416Z,1.30
2018-01-19T06:26:58.905Z,1.30
2018-01-19T06:29:26.365Z,1.30
2018-01-19T06:31:54.129Z,1.40
2018-01-19T06:34:21.559Z,1.30
2018-01-19T06:36:48.995Z,1.50
2018-01-19T06:39:16.417Z,1.50
2018-01-19T06:41:43.881Z,1.50
2018-01-19T06:44:11.313Z,1.50
2018-01-19T06:46:38.878Z,1.60
2018-01-19T06:49:06.510Z,1.50
2018-01-19T06:51:34.013Z,1.50
2018-01-19T06:54:01.461Z,1.50
2018-01-19T06:56:28.905Z,1.60
2018-01-19T06:58:56.377Z,1.60
2018-01-19T07:01:23.817Z,1.60
2018-01-19T07:03:51.389Z,1.70
2018-01-19T07:06:18.832Z,1.70
2018-01-19T07:08:46.259Z,1.60
2018-01-19T07:11:13.673Z,1.70
2018-01-19T07:13:41.110Z,1.60
2018-01-19T07:16:08.675Z,1.70
2018-01-19T07:18:36.110Z,1.60
2018-01-19T07:21:03.537Z,1.50
2018-01-19T07:23:30.972Z,1.60
2018-01-19T07:25:58.393Z,1.60
2018-01-19T07:28:25.829Z,1.80
2018-01-19T07:30:53.325Z,1.60
2018-01-19T07:33:20.867Z,1.60
2018-01-19T07:35:48.339Z,1.50
2018-01-19T07:38:15.798Z,1.60
2018-01-19T07:40:43.414Z,1.60
2018-01-19T07:43:11.827Z,1.70
2018-01-19T07:45:39.224Z,1.70
2018-01-19T07:48:06.857Z,1.60
2018-01-19T07:50:34.614Z,1.70
2018-01-19T07:53:02.037Z,1.80
2018-01-19T07:55:29.463Z,1.70
2018-01-19T07:57:56.993Z,1.80
2018-01-19T08:00:24.622Z,1.80
2018-01-19T08:02:52.224Z,1.80
2018-01-19T08:05:19.651Z,1.90
2018-01-19T08:07:47.089Z,1.90
2018-01-19T08:10:14.593Z,2.00
2018-01-19T08:12:42.049Z,1.90
2018-01-19T08:15:09.818Z,2.00
2018-01-19T08:17:37.264Z,2.00
2018-01-19T08:20:04.685Z,2.00
2018-01-19T08:22:32.120Z,2.00
2018-01-19T08:24:59.653Z,2.00
2018-01-19T08:27:27.280Z,2.10
2018-01-19T08:29:54.869Z,2.20
2018-01-19T08:32:22.297Z,2.20
2018-01-19T08:34:49.721Z,2.20
2018-01-19T08:37:17.149Z,2.30
2018-01-19T08:39:44.576Z,2.30
2018-01-19T08:42:12.062Z,2.50
2018-01-19T08:44:39.516Z,2.30
2018-01-19T08:47:06.985Z,2.40
2018-01-19T08:49:34.436Z,2.40
2018-01-19T08:52:01.993Z,2.40
2018-01-19T08:54:29.461Z,2.40
2018-01-19T08:56:56.905Z,2.40
2018-01-19T08:59:24.537Z,2.50
2018-01-19T09:01:52.037Z,2.50
2018-01-19T09:04:19.637Z,2.60
2018-01-19T09:06:47.252Z,2.60
2018-01-19T09:09:14.677Z,2.60
2018-01-19T09:11:42.137Z,2.70
2018-01-19T09:14:09.726Z,2.70
2018-01-19T09:16:37.184Z,2.80
2018-01-19T09:19:04.622Z,2.80
2018-01-19T09:21:32.045Z,2.80
2018-01-19T09:23:59.532Z,2.90
2018-01-19T09:26:26.953Z,3.00
2018-01-19T09:28:54.477Z,2.90
2018-01-19T09:31:21.897Z,3.00
2018-01-19T09:33:49.321Z,3.00
2018-01-19T09:36:16.845Z,3.00
2018-01-19T09:38:44.321Z,3.00
2018-01-19T09:41:11.937Z,3.20
2018-01-19T09:43:39.457Z,3.30
2018-01-19T09:46:06.887Z,3.30
2018-01-19T09:48:34.347Z,3.40
2018-01-19T09:51:01.854Z,3.40
2018-01-19T09:53:29.359Z,3.50
2018-01-19T09:55:57.739Z,3.40
2018-01-19T09:58:25.166Z,3.20
2018-01-19T10:00:52.649Z,3.40
2018-01-19T10:03:20.139Z,3.50
2018-01-19T10:05:47.878Z,3.50
2018-01-19T10:08:15.507Z,3.50
2018-01-19T10:10:42.996Z,3.50
2018-01-19T10:13:10.422Z,3.60
2018-01-19T10:15:37.915Z,3.70
2018-01-19T10:18:05.373Z,3.90
2018-01-19T10:20:32.799Z,3.90
2018-01-19T10:23:00.384Z,3.90
2018-01-19T10:25:27.847Z,3.80
2018-01-19T10:27:55.476Z,3.70
2018-01-19T10:30:22.939Z,3.70
2018-01-19T10:32:50.529Z,3.60
2018-01-19T10:35:18.177Z,3.70
2018-01-19T10:37:45.585Z,3.70
2018-01-19T10:40:13.112Z,3.80
2018-01-19T10:42:40.565Z,3.80
2018-01-19T10:45:08.121Z,3.90
2018-01-19T10:47:35.881Z,3.80
2018-01-19T10:50:03.311Z,3.90
2018-01-19T10:52:30.738Z,3.90
2018-01-19T10:54:58.161Z,4.00
2018-01-19T10:57:25.587Z,4.20
2018-01-19T10:59:53.172Z,4.10
2018-01-19T11:02:21.481Z,4.30
2018-01-19T11:04:48.914Z,4.50
2018-01-19T11:07:16.468Z,4.30
2018-01-19T11:09:43.929Z,4.30
2018-01-19T11:12:11.385Z,4.50
2018-01-19T11:14:38.849Z,4.80
2018-01-19T11:17:06.309Z,4.80
2018-01-19T11:19:33.748Z,4.90
2018-01-19T11:22:01.170Z,4.90
2018-01-19T11:24:28.677Z,4.90
2018-01-19T11:26:56.436Z,5.00
2018-01-19T11:29:23.863Z,5.20
2018-01-19T11:31:51.365Z,5.30
2018-01-19T11:34:18.787Z,5.20
2018-01-19T11:36:46.269Z,5.00
2018-01-19T11:39:13.728Z,4.80
2018-01-19T11:41:41.356Z,4.70
2018-01-19T11:44:08.854Z,4.60
2018-01-19T11:46:36.277Z,4.70
2018-01-19T11:49:03.702Z,4.80
2018-01-19T11:51:31.197Z,4.90
2018-01-19T11:53:58.782Z,4.90
2018-01-19T11:56:26.209Z,5.00
2018-01-19T11:58:53.633Z,5.10
2018-01-19T12:01:21.057Z,5.10
2018-01-19T12:03:48.617Z,5.10
2018-01-19T12:06:16.272Z,5.10
2018-01-19T12:08:43.839Z,4.80
2018-01-19T12:11:11.600Z,4.70
2018-01-19T12:13:39.236Z,4.60
2018-01-19T12:16:06.690Z,4.60
2018-01-19T12:18:34.184Z,4.50
2018-01-19T12:21:01.737Z,4.60
2018-01-19T12:23:29.197Z,4.60
2018-01-19T12:25:56.661Z,4.80
2018-01-19T12:28:24.081Z,4.90
2018-01-19T12:30:51.576Z,5.00
2018-01-19T12:33:19.029Z,5.10
2018-01-19T12:35:46.662Z,5.20
2018-01-19T12:38:14.356Z,5.20
2018-01-19T12:40:42.017Z,5.20
2018-01-19T12:43:09.781Z,5.20
2018-01-19T12:45:37.260Z,5.10
2018-01-19T12:48:04.653Z,4.90
2018-01-19T12:50:32.152Z,4.90
2018-01-19T12:52:59.919Z,4.80
2018-01-19T12:55:27.324Z,4.80
2018-01-19T12:57:54.745Z,4.70
2018-01-19T13:00:22.283Z,4.70
2018-01-19T13:02:49.700Z,4.70
2018-01-19T13:05:17.117Z,4.80
2018-01-19T13:07:44.573Z,4.90
2018-01-19T13:10:12.129Z,4.90
2018-01-19T13:12:39.589Z,4.90
2018-01-19T13:15:07.010Z,4.80
2018-01-19T13:17:34.437Z,4.70
2018-01-19T13:20:01.863Z,4.60
2018-01-19T13:22:29.417Z,4.60
2018-01-19T13:24:56.848Z,4.60
2018-01-19T13:27:24.333Z,4.70
2018-01-19T13:29:51.963Z,4.70
2018-01-19T13:32:19.552Z,4.70
2018-01-19T13:34:47.009Z,4.70
2018-01-19T13:37:14.428Z,4.70
2018-01-19T13:39:41.935Z,4.70
2018-01-19T13:42:09.689Z,4.60
2018-01-19T13:44:37.113Z,4.60
2018-01-19T13:47:04.529Z,4.70
2018-01-19T13:49:31.967Z,4.70
2018-01-19T13:51:59.521Z,4.90
2018-01-19T13:54:26.938Z,4.80
2018-01-19T13:56:54.353Z,4.90
2018-01-19T13:59:21.893Z,4.80
2018-01-19T14:01:49.304Z,4.90
2018-01-19T14:04:17.486Z,5.00
2018-01-19T14:06:45.058Z,4.90
2018-01-19T14:09:12.653Z,5.00
2018-01-19T14:11:40.075Z,5.00
2018-01-19T14:14:07.493Z,5.10
2018-01-19T14:16:34.912Z,5.10
2018-01-19T14:19:02.389Z,5.10
2018-01-19T14:21:29.802Z,6.00
2018-01-19T14:23:58.170Z,5.30
2018-01-19T14:26:26.358Z,5.20
2018-01-19T14:28:53.844Z,5.20
2018-01-19T14:31:21.269Z,5.10
2018-01-19T14:33:48.689Z,5.10
2018-01-19T14:36:16.122Z,5.00
2018-01-19T14:38:43.617Z,4.90
2018-01-19T14:41:11.141Z,5.00
2018-01-19T14:43:38.777Z,4.80
2018-01-19T14:46:06.216Z,4.70
2018-01-19T14:48:34.410Z,4.80
2018-01-19T14:51:01.841Z,4.80
2018-01-19T14:53:29.357Z,4.80
2018-01-19T14:55:56.781Z,4.80
2018-01-19T14:58:24.201Z,4.80
2018-01-19T15:00:51.621Z,4.70
2018-01-19T15:03:19.053Z,4.60
2018-01-19T15:05:46.541Z,4.50
2018-01-19T15:08:14.102Z,4.50
2018-01-19T15:10:41.733Z,4.50
2018-01-19T15:13:09.161Z,4.40
2018-01-19T15:15:36.580Z,4.30
2018-01-19T15:18:04.137Z,4.10
2018-01-19T15:20:31.568Z,4.20
2018-01-19T15:22:59.346Z,4.20
2018-01-19T15:25:26.917Z,4.20
2018-01-19T15:27:54.685Z,4.20
2018-01-19T15:30:22.101Z,4.20
2018-01-19T15:32:49.520Z,4.10
2018-01-19T15:35:17.062Z,4.10
2018-01-19T15:37:44.981Z,4.10
2018-01-19T15:40:13.500Z,4.00
2018-01-19T15:42:40.924Z,4.00
2018-01-19T15:45:08.360Z,3.90
2018-01-19T15:47:35.777Z,3.90
2018-01-19T15:50:03.226Z,3.80
2018-01-19T15:52:30.794Z,3.80
2018-01-19T15:54:58.244Z,3.70
2018-01-19T15:57:25.665Z,3.70
2018-01-19T15:59:53.173Z,3.70
2018-01-19T16:02:20.601Z,3.70
2018-01-19T16:04:48.018Z,3.70
2018-01-19T16:07:15.445Z,3.70
2018-01-19T16:09:42.901Z,3.70
2018-01-19T16:12:10.345Z,3.80
2018-01-19T16:14:37.809Z,3.80
2018-01-19T16:17:05.262Z,3.80
2018-01-19T16:19:32.760Z,3.80
2018-01-19T16:22:00.292Z,3.70
2018-01-19T16:24:27.708Z,3.80
2018-01-19T16:26:55.200Z,3.80
2018-01-19T16:29:22.625Z,3.80
2018-01-19T16:31:50.119Z,3.70
2018-01-19T16:34:17.533Z,3.60
2018-01-19T16:36:44.953Z,3.60
2018-01-19T16:39:12.381Z,3.40
2018-01-19T16:41:39.853Z,3.20
2018-01-19T16:44:07.272Z,3.10
2018-01-19T16:46:34.688Z,3.00
2018-01-19T16:49:07.219Z,3.00
2018-01-19T16:51:29.748Z,2.90
2018-01-19T16:53:57.241Z,2.90
2018-01-19T16:56:24.705Z,2.80
2018-01-19T16:58:52.469Z,2.80
2018-01-19T17:01:20.228Z,2.70
2018-01-19T17:03:47.645Z,2.70
2018-01-19T17:06:15.065Z,2.70
2018-01-19T17:08:42.609Z,2.60
2018-01-19T17:11:10.257Z,2.50
2018-01-19T17:13:37.653Z,2.40
2018-01-19T17:16:05.281Z,2.30
2018-01-19T17:18:32.749Z,2.40
2018-01-19T17:21:00.174Z,2.20
2018-01-19T17:23:27.660Z,2.30
2018-01-19T17:25:55.120Z,2.20
2018-01-19T17:28:22.577Z,2.20
2018-01-19T17:30:50.205Z,2.00
2018-01-19T17:33:17.798Z,1.90
2018-01-19T17:35:45.493Z,1.80
2018-01-19T17:38:12.912Z,1.80
2018-01-19T17:40:40.367Z,1.70
2018-01-19T17:43:07.933Z,1.50
2018-01-19T17:45:35.349Z,1.50
2018-01-19T17:48:02.769Z,1.50
2018-01-19T17:50:30.316Z,1.40
2018-01-19T17:52:57.833Z,1.40
2018-01-19T17:55:25.433Z,1.50
2018-01-19T17:57:52.920Z,1.40
2018-01-19T18:00:20.353Z,1.50
2018-01-19T18:02:47.809Z,1.50
2018-01-19T18:05:15.370Z,1.50
2018-01-19T18:07:43.134Z,1.50
2018-01-19T18:10:10.553Z,1.60
2018-01-19T18:12:37.973Z,1.50
2018-01-19T18:15:05.501Z,1.60
2018-01-19T18:17:32.962Z,1.60
2018-01-19T18:20:00.597Z,1.60
2018-01-19T18:22:28.202Z,1.60
2018-01-19T18:24:55.840Z,1.60
2018-01-19T18:27:23.306Z,1.60
2018-01-19T18:29:50.733Z,1.70
2018-01-19T18:32:18.233Z,1.70
2018-01-19T18:34:45.785Z,1.70
2018-01-19T18:37:13.242Z,1.60
2018-01-19T18:39:40.701Z,1.50
2018-01-19T18:42:08.329Z,1.60
2018-01-19T18:44:35.932Z,1.50
2018-01-19T18:47:03.345Z,1.50
2018-01-19T18:49:30.765Z,1.60
2018-01-19T18:51:58.298Z,1.60
2018-01-19T18:54:25.725Z,1.50
2018-01-19T18:56:53.214Z,1.60
2018-01-19T18:59:20.632Z,1.60
2018-01-19T19:01:48.057Z,1.50
2018-01-19T19:04:15.589Z,1.40
2018-01-19T19:06:43.041Z,1.40
2018-01-19T19:09:10.693Z,1.30
2018-01-19T19:11:38.262Z,1.40
2018-01-19T19:14:05.720Z,1.50
2018-01-19T19:16:33.140Z,1.60
2018-01-19T19:19:00.573Z,1.60
2018-01-19T19:21:28.921Z,1.70
2018-01-19T19:23:56.666Z,1.70
2018-01-19T19:26:24.137Z,2.00
2018-01-19T19:28:51.560Z,1.80
2018-01-19T19:31:19.753Z,1.80
2018-01-19T19:33:47.229Z,1.90
2018-01-19T19:36:14.860Z,2.00
2018-01-19T19:38:42.383Z,1.90
2018-01-19T19:41:09.917Z,2.00
2018-01-19T19:43:37.563Z,2.00
2018-01-19T19:46:05.005Z,2.10
2018-01-19T19:48:32.592Z,2.10
2018-01-19T19:51:00.352Z,2.10
2018-01-19T19:53:27.812Z,2.10
2018-01-19T19:55:55.242Z,2.10
2018-01-19T19:58:22.665Z,2.20
2018-01-19T20:00:50.194Z,2.30
2018-01-19T20:03:17.949Z,2.20
2018-01-19T20:05:45.376Z,2.20
2018-01-19T20:08:12.793Z,2.10
2018-01-19T20:10:40.325Z,2.10
2018-01-19T20:13:08.093Z,2.10
2018-01-19T20:15:35.721Z,2.10
2018-01-19T20:18:03.265Z,2.10
2018-01-19T20:20:30.693Z,2.10
2018-01-19T20:22:58.133Z,2.10
2018-01-19T20:25:25.617Z,2.00
2018-01-19T20:27:53.149Z,2.10
2018-01-19T20:30:20.909Z,2.00
2018-01-19T20:32:48.678Z,2.00
2018-01-19T20:35:16.318Z,1.90
2018-01-19T20:37:43.760Z,1.90
2018-01-19T20:40:11.364Z,1.90
2018-01-19T20:42:38.989Z,1.80
2018-01-19T20:45:06.466Z,1.90
2018-01-19T20:47:33.933Z,1.90
2018-01-19T20:50:01.398Z,1.80
2018-01-19T20:52:28.881Z,1.80
2018-01-19T20:54:57.330Z,1.70
2018-01-19T20:57:24.793Z,1.70
2018-01-19T20:59:52.213Z,1.70
2018-01-19T21:02:19.709Z,1.60
2018-01-19T21:04:47.342Z,1.50
2018-01-19T21:07:14.765Z,1.50
2018-01-19T21:09:42.258Z,1.60
2018-01-19T21:12:09.751Z,1.40
2018-01-19T21:14:37.238Z,1.40
2018-01-19T21:17:04.764Z,1.40
2018-01-19T21:19:32.189Z,1.50
2018-01-19T21:21:59.617Z,1.60
2018-01-19T21:24:27.965Z,1.70
2018-01-19T21:26:55.516Z,1.70
2018-01-19T21:29:23.291Z,1.80
2018-01-19T21:31:50.914Z,1.80
2018-01-19T21:34:18.337Z,1.90
2018-01-19T21:36:45.866Z,1.90
2018-01-19T21:39:13.298Z,2.10
2018-01-19T21:41:40.881Z,2.10
2018-01-19T21:44:08.334Z,2.30
2018-01-19T21:46:35.964Z,2.10
2018-01-19T21:49:03.757Z,2.10
2018-01-19T21:51:31.361Z,2.00
2018-01-19T21:53:59.085Z,1.90
2018-01-19T21:56:26.516Z,1.90
2018-01-19T21:58:53.940Z,2.00
2018-01-19T22:01:21.362Z,1.70
2018-01-19T22:03:48.921Z,1.90
2018-01-19T22:06:16.548Z,1.60
2018-01-19T22:08:44.217Z,1.60
2018-01-19T22:11:11.909Z,1.50
2018-01-19T22:13:39.545Z,1.50
2018-01-19T22:16:07.137Z,1.50
2018-01-19T22:18:34.593Z,1.70
2018-01-19T22:21:02.021Z,1.60
2018-01-19T22:23:29.437Z,1.60
2018-01-19T22:25:56.861Z,1.60
2018-01-19T22:28:24.353Z,1.60
2018-01-19T22:30:51.877Z,1.70
2018-01-19T22:33:19.334Z,1.60
2018-01-19T22:35:46.756Z,1.70
2018-01-19T22:38:14.253Z,1.70
2018-01-19T22:40:42.017Z,1.70
2018-01-19T22:43:09.448Z,1.70
2018-01-19T22:45:36.865Z,1.70
2018-01-19T22:48:04.294Z,1.70
2018-01-19T22:50:31.777Z,1.70
2018-01-19T22:52:59.204Z,1.80
2018-01-19T22:55:26.666Z,1.70
2018-01-19T22:57:54.089Z,1.80
2018-01-19T23:00:21.514Z,1.70
2018-01-19T23:02:49.004Z,1.70
2018-01-19T23:05:16.497Z,1.70
2018-01-19T23:07:43.959Z,1.60
2018-01-19T23:10:11.383Z,1.70
2018-01-19T23:12:38.804Z,1.70
2018-01-19T23:15:06.330Z,1.60
2018-01-19T23:17:33.889Z,1.60
2018-01-19T23:20:01.645Z,1.80
2018-01-19T23:22:29.069Z,1.80
2018-01-19T23:24:56.491Z,1.80
2018-01-19T23:27:23.917Z,1.80
2018-01-19T23:29:51.441Z,1.80
2018-01-19T23:32:18.945Z,1.80
2018-01-19T23:34:46.705Z,1.90
2018-01-19T23:37:14.121Z,2.00
2018-01-19T23:39:41.629Z,1.90
2018-01-19T23:42:09.386Z,1.90
2018-01-19T23:44:36.844Z,1.90
2018-01-19T23:47:04.803Z,1.90
2018-01-19T23:49:32.329Z,1.90
2018-01-19T23:51:59.833Z,1.80
2018-01-19T23:54:27.285Z,1.90
2018-01-19T23:56:54.749Z,1.90
2018-01-19T23:59:22.209Z,1.90
